sensor_id;sensor_type;location;lat;lon;timestamp;pressure;altitude;pressure_sealevel;temperature;humidity
66164;BME280;52962;51.088;3.096;2024-03-08T00:00:17;101204.75;;;23.78;28.96
66164;BME280;52962;51.088;3.096;2024-03-08T00:02:48;101201.75;;;23.89;28.73
66164;BME280;52962;51.088;3.096;2024-03-08T00:05:18;101199.59;;;24.00;28.79
66164;BME280;52962;51.088;3.096;2024-03-08T00:07:46;101197.06;;;23.94;28.69
66164;BME280;52962;51.088;3.096;2024-03-08T00:10:14;101197.97;;;23.94;28.88
66164;BME280;52962;51.088;3.096;2024-03-08T00:12:44;101199.19;;;23.84;28.61
66164;BME280;52962;51.088;3.096;2024-03-08T00:15:15;101190.63;;;23.99;28.80
66164;BME280;52962;51.088;3.096;2024-03-08T00:17:47;101189.75;;;23.99;28.82
66164;BME280;52962;51.088;3.096;2024-03-08T00:20:16;101197.78;;;24.00;28.79
66164;BME280;52962;51.088;3.096;2024-03-08T00:22:46;101184.50;;;23.94;28.67
66164;BME280;52962;51.088;3.096;2024-03-08T00:25:14;101186.38;;;23.92;28.76
66164;BME280;52962;51.088;3.096;2024-03-08T00:27:43;101192.66;;;23.62;28.97
66164;BME280;52962;51.088;3.096;2024-03-08T00:30:11;101187.09;;;23.68;28.75
66164;BME280;52962;51.088;3.096;2024-03-08T00:32:41;101184.50;;;23.65;28.91
66164;BME280;52962;51.088;3.096;2024-03-08T00:35:11;101180.44;;;23.48;28.99
66164;BME280;52962;51.088;3.096;2024-03-08T00:37:40;101182.63;;;23.34;29.19
66164;BME280;52962;51.088;3.096;2024-03-08T00:40:09;101181.06;;;23.26;29.30
66164;BME280;52962;51.088;3.096;2024-03-08T00:42:38;101182.69;;;23.31;29.02
66164;BME280;52962;51.088;3.096;2024-03-08T00:45:07;101174.50;;;23.36;29.00
66164;BME280;52962;51.088;3.096;2024-03-08T00:47:37;101172.03;;;23.28;29.20
66164;BME280;52962;51.088;3.096;2024-03-08T00:50:07;101166.81;;;23.22;29.41
66164;BME280;52962;51.088;3.096;2024-03-08T00:52:37;101181.50;;;23.09;29.31
66164;BME280;52962;51.088;3.096;2024-03-08T00:55:06;101175.13;;;23.13;29.43
66164;BME280;52962;51.088;3.096;2024-03-08T00:57:34;101170.03;;;23.02;29.44
66164;BME280;52962;51.088;3.096;2024-03-08T01:00:04;101166.63;;;22.96;29.58
66164;BME280;52962;51.088;3.096;2024-03-08T01:02:36;101163.50;;;22.77;29.66
66164;BME280;52962;51.088;3.096;2024-03-08T01:05:05;101166.16;;;22.41;30.22
66164;BME280;52962;51.088;3.096;2024-03-08T01:07:34;101161.88;;;22.33;30.31
66164;BME280;52962;51.088;3.096;2024-03-08T01:10:03;101158.28;;;22.34;30.08
66164;BME280;52962;51.088;3.096;2024-03-08T01:12:36;101158.72;;;22.52;29.93
66164;BME280;52962;51.088;3.096;2024-03-08T01:15:06;101151.84;;;22.02;30.60
66164;BME280;52962;51.088;3.096;2024-03-08T01:17:34;101152.81;;;21.97;30.35
66164;BME280;52962;51.088;3.096;2024-03-08T01:20:04;101153.69;;;21.97;30.38
66164;BME280;52962;51.088;3.096;2024-03-08T01:22:32;101153.91;;;21.88;30.53
66164;BME280;52962;51.088;3.096;2024-03-08T01:25:01;101150.97;;;22.00;30.49
66164;BME280;52962;51.088;3.096;2024-03-08T01:27:33;101138.97;;;22.18;30.16
66164;BME280;52962;51.088;3.096;2024-03-08T01:30:02;101139.28;;;21.63;30.81
66164;BME280;52962;51.088;3.096;2024-03-08T01:32:31;101134.16;;;22.69;29.51
66164;BME280;52962;51.088;3.096;2024-03-08T01:35:00;101139.69;;;22.63;29.23
66164;BME280;52962;51.088;3.096;2024-03-08T01:37:29;101134.00;;;22.75;29.26
66164;BME280;52962;51.088;3.096;2024-03-08T01:39:58;101134.84;;;22.79;29.14
66164;BME280;52962;51.088;3.096;2024-03-08T01:42:26;101126.81;;;22.79;29.06
66164;BME280;52962;51.088;3.096;2024-03-08T01:44:56;101128.09;;;22.61;29.27
66164;BME280;52962;51.088;3.096;2024-03-08T01:47:25;101116.69;;;22.53;29.50
66164;BME280;52962;51.088;3.096;2024-03-08T01:49:53;101113.44;;;22.39;29.79
66164;BME280;52962;51.088;3.096;2024-03-08T01:52:22;101116.09;;;22.40;29.60
66164;BME280;52962;51.088;3.096;2024-03-08T01:54:52;101109.41;;;22.21;29.75
66164;BME280;52962;51.088;3.096;2024-03-08T01:57:20;101108.03;;;22.00;30.10
66164;BME280;52962;51.088;3.096;2024-03-08T01:59:48;101102.09;;;21.86;30.38
66164;BME280;52962;51.088;3.096;2024-03-08T02:02:19;101092.78;;;22.05;30.13
66164;BME280;52962;51.088;3.096;2024-03-08T02:04:48;101098.56;;;22.26;29.47
66164;BME280;52962;51.088;3.096;2024-03-08T02:07:20;101091.78;;;22.46;29.24
66164;BME280;52962;51.088;3.096;2024-03-08T02:09:49;101092.66;;;22.47;29.30
66164;BME280;52962;51.088;3.096;2024-03-08T02:12:18;101088.56;;;22.32;29.62
66164;BME280;52962;51.088;3.096;2024-03-08T02:14:48;101088.88;;;22.18;29.66
66164;BME280;52962;51.088;3.096;2024-03-08T02:17:16;101082.69;;;22.16;29.58
66164;BME280;52962;51.088;3.096;2024-03-08T02:19:46;101075.47;;;22.18;29.69
66164;BME280;52962;51.088;3.096;2024-03-08T02:22:16;101071.81;;;22.23;29.85
66164;BME280;52962;51.088;3.096;2024-03-08T02:24:44;101066.50;;;22.19;29.68
66164;BME280;52962;51.088;3.096;2024-03-08T02:27:12;101061.22;;;22.16;29.71
66164;BME280;52962;51.088;3.096;2024-03-08T02:29:42;101057.25;;;21.94;30.06
66164;BME280;52962;51.088;3.096;2024-03-08T02:32:11;101053.88;;;21.84;30.25
66164;BME280;52962;51.088;3.096;2024-03-08T02:34:39;101050.28;;;21.85;29.91
66164;BME280;52962;51.088;3.096;2024-03-08T02:37:08;101042.25;;;24.41;27.73
66164;BME280;52962;51.088;3.096;2024-03-08T02:39:38;101042.22;;;22.61;29.18
66164;BME280;52962;51.088;3.096;2024-03-08T02:42:06;101036.44;;;22.05;29.66
66164;BME280;52962;51.088;3.096;2024-03-08T02:44:35;101036.72;;;21.54;30.55
66164;BME280;52962;51.088;3.096;2024-03-08T02:47:04;101034.47;;;21.35;30.61
66164;BME280;52962;51.088;3.096;2024-03-08T02:49:34;101028.13;;;21.39;30.71
66164;BME280;52962;51.088;3.096;2024-03-08T02:52:04;101025.44;;;21.39;30.73
66164;BME280;52962;51.088;3.096;2024-03-08T02:54:32;101020.97;;;21.39;30.57
66164;BME280;52962;51.088;3.096;2024-03-08T02:57:01;101022.59;;;21.46;30.45
66164;BME280;52962;51.088;3.096;2024-03-08T02:59:31;101013.59;;;21.50;30.55
66164;BME280;52962;51.088;3.096;2024-03-08T03:01:59;101014.53;;;21.48;30.34
66164;BME280;52962;51.088;3.096;2024-03-08T03:04:27;101018.94;;;21.50;30.52
66164;BME280;52962;51.088;3.096;2024-03-08T03:06:55;101012.94;;;21.39;30.46
66164;BME280;52962;51.088;3.096;2024-03-08T03:09:25;101008.22;;;21.50;30.52
66164;BME280;52962;51.088;3.096;2024-03-08T03:11:54;101006.47;;;21.49;30.36
66164;BME280;52962;51.088;3.096;2024-03-08T03:14:24;101004.41;;;21.61;30.33
66164;BME280;52962;51.088;3.096;2024-03-08T03:16:54;100995.63;;;21.54;30.61
66164;BME280;52962;51.088;3.096;2024-03-08T03:19:22;100992.16;;;21.06;30.82
66164;BME280;52962;51.088;3.096;2024-03-08T03:21:50;100990.38;;;21.06;31.06
66164;BME280;52962;51.088;3.096;2024-03-08T03:24:19;100992.06;;;20.67;31.39
66164;BME280;52962;51.088;3.096;2024-03-08T03:26:48;100978.25;;;20.88;31.38
66164;BME280;52962;51.088;3.096;2024-03-08T03:29:16;100982.97;;;20.76;31.24
66164;BME280;52962;51.088;3.096;2024-03-08T03:31:46;100981.25;;;20.73;31.50
66164;BME280;52962;51.088;3.096;2024-03-08T03:34:14;100983.03;;;20.73;31.55
66164;BME280;52962;51.088;3.096;2024-03-08T03:36:42;100980.41;;;20.71;31.53
66164;BME280;52962;51.088;3.096;2024-03-08T03:39:14;100975.25;;;20.61;31.60
66164;BME280;52962;51.088;3.096;2024-03-08T03:41:43;100975.38;;;21.41;30.82
66164;BME280;52962;51.088;3.096;2024-03-08T03:44:13;100964.78;;;22.78;28.94
66164;BME280;52962;51.088;3.096;2024-03-08T03:46:41;100965.28;;;23.24;28.13
66164;BME280;52962;51.088;3.096;2024-03-08T03:49:13;100958.66;;;23.35;27.79
66164;BME280;52962;51.088;3.096;2024-03-08T03:51:41;100957.75;;;23.35;27.86
66164;BME280;52962;51.088;3.096;2024-03-08T03:54:09;100955.31;;;23.27;27.92
66164;BME280;52962;51.088;3.096;2024-03-08T03:56:38;100953.00;;;23.15;27.95
66164;BME280;52962;51.088;3.096;2024-03-08T03:59:06;100947.97;;;23.03;28.13
66164;BME280;52962;51.088;3.096;2024-03-08T04:01:35;100943.56;;;23.00;28.01
66164;BME280;52962;51.088;3.096;2024-03-08T04:04:05;100948.91;;;23.02;28.13
66164;BME280;52962;51.088;3.096;2024-03-08T04:06:35;100940.94;;;22.99;27.89
66164;BME280;52962;51.088;3.096;2024-03-08T04:09:03;100949.56;;;22.80;28.16
66164;BME280;52962;51.088;3.096;2024-03-08T04:11:32;100949.78;;;22.71;28.16
66164;BME280;52962;51.088;3.096;2024-03-08T04:14:01;100950.75;;;22.69;28.23
66164;BME280;52962;51.088;3.096;2024-03-08T04:16:29;100944.75;;;22.59;28.29
66164;BME280;52962;51.088;3.096;2024-03-08T04:18:58;100936.28;;;22.42;28.37
66164;BME280;52962;51.088;3.096;2024-03-08T04:21:26;100935.06;;;22.19;28.60
66164;BME280;52962;51.088;3.096;2024-03-08T04:23:56;100931.44;;;21.85;29.13
66164;BME280;52962;51.088;3.096;2024-03-08T04:26:24;100936.00;;;21.83;28.99
66164;BME280;52962;51.088;3.096;2024-03-08T04:28:53;100928.53;;;21.94;29.21
66164;BME280;52962;51.088;3.096;2024-03-08T04:31:21;100937.66;;;21.87;28.76
66164;BME280;52962;51.088;3.096;2024-03-08T04:33:49;100930.84;;;21.74;29.25
66164;BME280;52962;51.088;3.096;2024-03-08T04:36:18;100913.81;;;21.76;29.24
66164;BME280;52962;51.088;3.096;2024-03-08T04:38:46;100915.53;;;21.79;28.95
66164;BME280;52962;51.088;3.096;2024-03-08T04:41:16;100921.81;;;21.78;29.00
66164;BME280;52962;51.088;3.096;2024-03-08T04:43:45;100919.94;;;21.81;29.19
66164;BME280;52962;51.088;3.096;2024-03-08T04:46:13;100919.81;;;21.86;29.12
66164;BME280;52962;51.088;3.096;2024-03-08T04:48:42;100916.28;;;21.84;28.72
66164;BME280;52962;51.088;3.096;2024-03-08T04:51:10;100914.94;;;21.68;28.71
66164;BME280;52962;51.088;3.096;2024-03-08T04:53:39;100911.41;;;21.66;29.02
66164;BME280;52962;51.088;3.096;2024-03-08T04:56:07;100915.28;;;21.52;29.36
66164;BME280;52962;51.088;3.096;2024-03-08T04:58:37;100916.97;;;21.57;29.09
66164;BME280;52962;51.088;3.096;2024-03-08T05:01:05;100904.63;;;21.49;29.29
66164;BME280;52962;51.088;3.096;2024-03-08T05:03:37;100909.16;;;21.47;29.17
66164;BME280;52962;51.088;3.096;2024-03-08T05:06:07;100901.06;;;21.49;29.23
66164;BME280;52962;51.088;3.096;2024-03-08T05:08:35;100906.78;;;21.34;29.05
66164;BME280;52962;51.088;3.096;2024-03-08T05:11:04;100903.44;;;21.24;29.37
66164;BME280;52962;51.088;3.096;2024-03-08T05:13:34;100897.34;;;21.16;29.43
66164;BME280;52962;51.088;3.096;2024-03-08T05:16:04;100905.16;;;20.85;29.94
66164;BME280;52962;51.088;3.096;2024-03-08T05:18:34;100897.88;;;20.48;30.24
66164;BME280;52962;51.088;3.096;2024-03-08T05:21:03;100900.50;;;20.02;30.89
66164;BME280;52962;51.088;3.096;2024-03-08T05:23:31;100903.69;;;21.12;29.52
66164;BME280;52962;51.088;3.096;2024-03-08T05:26:01;100894.72;;;21.88;28.48
66164;BME280;52962;51.088;3.096;2024-03-08T05:28:32;100895.56;;;21.91;28.57
66164;BME280;52962;51.088;3.096;2024-03-08T05:31:00;100896.94;;;21.73;28.26
66164;BME280;52962;51.088;3.096;2024-03-08T05:33:29;100890.47;;;21.81;28.41
66164;BME280;52962;51.088;3.096;2024-03-08T05:35:57;100888.13;;;21.68;28.81
66164;BME280;52962;51.088;3.096;2024-03-08T05:38:26;100889.63;;;21.79;28.59
66164;BME280;52962;51.088;3.096;2024-03-08T05:40:55;100888.69;;;21.80;28.24
66164;BME280;52962;51.088;3.096;2024-03-08T05:43:23;100890.16;;;21.92;28.24
66164;BME280;52962;51.088;3.096;2024-03-08T05:45:51;100878.50;;;21.93;28.20
66164;BME280;52962;51.088;3.096;2024-03-08T05:48:19;100880.69;;;21.79;28.14
66164;BME280;52962;51.088;3.096;2024-03-08T05:50:51;100886.59;;;21.92;28.18
66164;BME280;52962;51.088;3.096;2024-03-08T05:53:19;100875.56;;;21.70;28.35
66164;BME280;52962;51.088;3.096;2024-03-08T05:55:47;100880.16;;;21.65;28.25
66164;BME280;52962;51.088;3.096;2024-03-08T05:58:16;100882.25;;;21.52;28.67
66164;BME280;52962;51.088;3.096;2024-03-08T06:00:44;100872.56;;;21.46;28.69
66164;BME280;52962;51.088;3.096;2024-03-08T06:03:16;100870.94;;;21.39;28.59
66164;BME280;52962;51.088;3.096;2024-03-08T06:05:47;100862.91;;;21.39;28.46
66164;BME280;52962;51.088;3.096;2024-03-08T06:08:17;100858.28;;;21.46;28.57
66164;BME280;52962;51.088;3.096;2024-03-08T06:10:46;100856.50;;;21.06;28.87
66164;BME280;52962;51.088;3.096;2024-03-08T06:13:19;100860.91;;;20.69;29.68
66164;BME280;52962;51.088;3.096;2024-03-08T06:15:48;100854.03;;;20.57;29.48
66164;BME280;52962;51.088;3.096;2024-03-08T06:18:16;100854.13;;;20.52;29.79
66164;BME280;52962;51.088;3.096;2024-03-08T06:20:45;100848.94;;;20.43;29.88
66164;BME280;52962;51.088;3.096;2024-03-08T06:23:13;100845.47;;;20.37;29.83
66164;BME280;52962;51.088;3.096;2024-03-08T06:25:46;100835.56;;;20.43;29.86
66164;BME280;52962;51.088;3.096;2024-03-08T06:28:14;100832.97;;;20.40;29.87
66164;BME280;52962;51.088;3.096;2024-03-08T06:30:43;100820.59;;;20.33;30.03
66164;BME280;52962;51.088;3.096;2024-03-08T06:33:12;100816.72;;;20.03;30.50
66164;BME280;52962;51.088;3.096;2024-03-08T06:35:40;100818.00;;;19.82;30.57
66164;BME280;52962;51.088;3.096;2024-03-08T06:38:08;100819.91;;;19.76;30.46
66164;BME280;52962;51.088;3.096;2024-03-08T06:40:37;100813.56;;;19.80;30.47
66164;BME280;52962;51.088;3.096;2024-03-08T06:43:06;100812.66;;;19.81;30.71
66164;BME280;52962;51.088;3.096;2024-03-08T06:45:35;100813.53;;;19.83;30.74
66164;BME280;52962;51.088;3.096;2024-03-08T06:48:05;100808.25;;;19.80;30.71
66164;BME280;52962;51.088;3.096;2024-03-08T06:50:36;100809.88;;;19.87;30.76
66164;BME280;52962;51.088;3.096;2024-03-08T06:53:04;100805.41;;;19.89;30.65
66164;BME280;52962;51.088;3.096;2024-03-08T06:55:33;100810.81;;;19.84;30.59
66164;BME280;52962;51.088;3.096;2024-03-08T06:58:03;100806.25;;;19.91;30.85
66164;BME280;52962;51.088;3.096;2024-03-08T07:00:33;100811.44;;;20.00;30.78
66164;BME280;52962;51.088;3.096;2024-03-08T07:03:01;100805.25;;;19.97;30.82
66164;BME280;52962;51.088;3.096;2024-03-08T07:05:29;100817.63;;;20.02;30.46
66164;BME280;52962;51.088;3.096;2024-03-08T07:07:59;100809.53;;;20.05;30.74
66164;BME280;52962;51.088;3.096;2024-03-08T07:10:27;100806.53;;;20.23;30.56
66164;BME280;52962;51.088;3.096;2024-03-08T07:12:55;100812.72;;;20.25;30.60
66164;BME280;52962;51.088;3.096;2024-03-08T07:15:24;100807.31;;;20.29;30.41
66164;BME280;52962;51.088;3.096;2024-03-08T07:17:53;100809.81;;;20.39;30.48
66164;BME280;52962;51.088;3.096;2024-03-08T07:20:21;100807.88;;;20.46;30.08
66164;BME280;52962;51.088;3.096;2024-03-08T07:22:50;100808.69;;;20.49;30.16
66164;BME280;52962;51.088;3.096;2024-03-08T07:25:18;100801.63;;;20.47;30.32
66164;BME280;52962;51.088;3.096;2024-03-08T07:27:50;100801.63;;;20.47;30.43
66164;BME280;52962;51.088;3.096;2024-03-08T07:30:20;100800.81;;;20.43;30.01
66164;BME280;52962;51.088;3.096;2024-03-08T07:33:07;100803.19;;;20.57;30.03
66164;BME280;52962;51.088;3.096;2024-03-08T07:35:40;100799.53;;;20.61;29.66
66164;BME280;52962;51.088;3.096;2024-03-08T07:38:09;100796.75;;;20.66;29.90
66164;BME280;52962;51.088;3.096;2024-03-08T07:40:39;100801.06;;;20.73;29.82
66164;BME280;52962;51.088;3.096;2024-03-08T07:43:11;100802.84;;;20.72;30.03
66164;BME280;52962;51.088;3.096;2024-03-08T07:45:40;100792.56;;;20.93;30.00
66164;BME280;52962;51.088;3.096;2024-03-08T07:48:10;100790.81;;;20.90;30.26
66164;BME280;52962;51.088;3.096;2024-03-08T07:50:40;100785.84;;;20.75;29.60
66164;BME280;52962;51.088;3.096;2024-03-08T07:53:08;100785.38;;;20.95;29.61
66164;BME280;52962;51.088;3.096;2024-03-08T07:55:37;100771.78;;;21.04;29.90
66164;BME280;52962;51.088;3.096;2024-03-08T07:58:06;100771.81;;;21.02;29.98
66164;BME280;52962;51.088;3.096;2024-03-08T08:00:36;100768.19;;;21.05;29.82
66164;BME280;52962;51.088;3.096;2024-03-08T08:03:04;100757.09;;;21.20;29.95
66164;BME280;52962;51.088;3.096;2024-03-08T08:05:36;100758.66;;;21.30;29.85
66164;BME280;52962;51.088;3.096;2024-03-08T08:08:07;100753.38;;;21.27;29.77
66164;BME280;52962;51.088;3.096;2024-03-08T08:10:38;100740.44;;;21.07;29.36
66164;BME280;52962;51.088;3.096;2024-03-08T08:13:06;100748.03;;;21.27;29.71
66164;BME280;52962;51.088;3.096;2024-03-08T08:15:34;100741.66;;;21.31;29.45
66164;BME280;52962;51.088;3.096;2024-03-08T08:18:03;100735.19;;;21.74;29.20
66164;BME280;52962;51.088;3.096;2024-03-08T08:20:33;100728.00;;;21.76;29.63
66164;BME280;52962;51.088;3.096;2024-03-08T08:23:03;100713.19;;;21.61;29.31
66164;BME280;52962;51.088;3.096;2024-03-08T08:25:31;100715.47;;;21.76;29.60
66164;BME280;52962;51.088;3.096;2024-03-08T08:28:01;100719.66;;;21.85;29.21
66164;BME280;52962;51.088;3.096;2024-03-08T08:30:31;100716.94;;;21.86;28.95
66164;BME280;52962;51.088;3.096;2024-03-08T08:33:00;100711.31;;;21.96;29.07
66164;BME280;52962;51.088;3.096;2024-03-08T08:35:29;100712.09;;;21.99;29.10
66164;BME280;52962;51.088;3.096;2024-03-08T08:37:57;100708.19;;;22.12;29.15
66164;BME280;52962;51.088;3.096;2024-03-08T08:40:28;100697.09;;;22.25;29.10
66164;BME280;52962;51.088;3.096;2024-03-08T08:42:57;100698.00;;;22.24;29.26
66164;BME280;52962;51.088;3.096;2024-03-08T08:45:26;100694.53;;;22.20;28.76
66164;BME280;52962;51.088;3.096;2024-03-08T08:47:54;100693.72;;;22.18;28.54
66164;BME280;52962;51.088;3.096;2024-03-08T08:50:23;100683.72;;;22.23;28.81
66164;BME280;52962;51.088;3.096;2024-03-08T08:52:52;100686.38;;;22.25;28.51
66164;BME280;52962;51.088;3.096;2024-03-08T08:55:21;100688.81;;;22.32;28.89
66164;BME280;52962;51.088;3.096;2024-03-08T08:57:54;100683.44;;;22.32;28.89
66164;BME280;52962;51.088;3.096;2024-03-08T09:00:23;100678.78;;;22.39;28.50
66164;BME280;52962;51.088;3.096;2024-03-08T09:02:54;100685.13;;;22.64;28.97
66164;BME280;52962;51.088;3.096;2024-03-08T09:05:25;100681.13;;;22.49;28.58
66164;BME280;52962;51.088;3.096;2024-03-08T09:07:54;100671.06;;;22.56;28.76
66164;BME280;52962;51.088;3.096;2024-03-08T09:10:22;100672.78;;;22.59;28.63
66164;BME280;52962;51.088;3.096;2024-03-08T09:12:57;100661.00;;;22.91;28.77
66164;BME280;52962;51.088;3.096;2024-03-08T09:15:28;100654.13;;;22.83;28.54
66164;BME280;52962;51.088;3.096;2024-03-08T09:17:56;100650.06;;;22.97;28.96
66164;BME280;52962;51.088;3.096;2024-03-08T09:20:26;100640.31;;;22.94;28.43
66164;BME280;52962;51.088;3.096;2024-03-08T09:22:54;100644.69;;;22.97;28.33
66164;BME280;52962;51.088;3.096;2024-03-08T09:25:22;100646.25;;;23.04;28.18
66164;BME280;52962;51.088;3.096;2024-03-08T09:27:50;100639.00;;;23.06;28.15
66164;BME280;52962;51.088;3.096;2024-03-08T09:30:20;100632.09;;;22.99;27.86
66164;BME280;52962;51.088;3.096;2024-03-08T09:32:49;100634.31;;;23.12;28.26
66164;BME280;52962;51.088;3.096;2024-03-08T09:35:19;100630.50;;;23.44;27.25
66164;BME280;52962;51.088;3.096;2024-03-08T09:37:47;100628.19;;;23.34;27.58
66164;BME280;52962;51.088;3.096;2024-03-08T09:40:18;100614.69;;;23.35;27.69
66164;BME280;52962;51.088;3.096;2024-03-08T09:42:48;100607.16;;;23.93;27.68
66164;BME280;52962;51.088;3.096;2024-03-08T09:45:16;100599.50;;;24.51;27.14
66164;BME280;52962;51.088;3.096;2024-03-08T09:47:46;100597.00;;;24.68;26.97
66164;BME280;52962;51.088;3.096;2024-03-08T09:50:15;100587.00;;;24.92;26.47
66164;BME280;52962;51.088;3.096;2024-03-08T09:52:47;100584.19;;;24.95;26.93
66164;BME280;52962;51.088;3.096;2024-03-08T09:55:16;100588.94;;;24.89;26.08
66164;BME280;52962;51.088;3.096;2024-03-08T09:57:51;100583.03;;;25.01;26.76
66164;BME280;52962;51.088;3.096;2024-03-08T10:00:49;100578.47;;;25.03;26.44
66164;BME280;52962;51.088;3.096;2024-03-08T10:03:19;100575.97;;;24.98;26.33
66164;BME280;52962;51.088;3.096;2024-03-08T10:05:47;100576.31;;;25.31;26.26
66164;BME280;52962;51.088;3.096;2024-03-08T10:08:15;100563.19;;;25.63;25.93
66164;BME280;52962;51.088;3.096;2024-03-08T10:10:43;100563.09;;;25.46;25.12
66164;BME280;52962;51.088;3.096;2024-03-08T10:13:13;100553.19;;;25.46;25.77
66164;BME280;52962;51.088;3.096;2024-03-08T10:15:44;100547.88;;;25.24;25.00
66164;BME280;52962;51.088;3.096;2024-03-08T10:18:12;100551.59;;;25.61;24.62
66164;BME280;52962;51.088;3.096;2024-03-08T10:20:42;100544.22;;;25.85;26.26
66164;BME280;52962;51.088;3.096;2024-03-08T10:23:13;100533.28;;;25.69;25.23
66164;BME280;52962;51.088;3.096;2024-03-08T10:25:43;100535.66;;;25.36;25.02
66164;BME280;52962;51.088;3.096;2024-03-08T10:28:11;100536.19;;;25.64;25.20
66164;BME280;52962;51.088;3.096;2024-03-08T10:30:47;100525.44;;;25.63;25.32
66164;BME280;52962;51.088;3.096;2024-03-08T10:33:15;100520.25;;;26.15;24.80
66164;BME280;52962;51.088;3.096;2024-03-08T10:35:45;100512.78;;;26.20;23.97
66164;BME280;52962;51.088;3.096;2024-03-08T10:38:15;100511.56;;;26.63;24.99
66164;BME280;52962;51.088;3.096;2024-03-08T10:40:48;100514.56;;;26.57;24.61
66164;BME280;52962;51.088;3.096;2024-03-08T10:43:23;100511.31;;;26.67;25.56
66164;BME280;52962;51.088;3.096;2024-03-08T10:46:03;100505.44;;;26.59;24.85
66164;BME280;52962;51.088;3.096;2024-03-08T10:48:37;100511.56;;;26.63;26.25
66164;BME280;52962;51.088;3.096;2024-03-08T10:51:11;100508.56;;;27.03;23.06
66164;BME280;52962;51.088;3.096;2024-03-08T10:53:39;100509.09;;;26.93;26.08
66164;BME280;52962;51.088;3.096;2024-03-08T10:56:08;100494.63;;;26.94;26.20
66164;BME280;52962;51.088;3.096;2024-03-08T10:58:38;100492.16;;;26.72;24.99
66164;BME280;52962;51.088;3.096;2024-03-08T11:01:07;100493.91;;;26.56;26.12
66164;BME280;52962;51.088;3.096;2024-03-08T11:03:47;100495.72;;;26.38;25.23
66164;BME280;52962;51.088;3.096;2024-03-08T11:06:29;100486.53;;;26.59;25.83
66164;BME280;52962;51.088;3.096;2024-03-08T11:08:59;100478.88;;;26.33;25.41
66164;BME280;52962;51.088;3.096;2024-03-08T11:11:28;100474.13;;;26.19;25.08
66164;BME280;52962;51.088;3.096;2024-03-08T11:14:02;100472.47;;;26.53;24.87
66164;BME280;52962;51.088;3.096;2024-03-08T11:16:43;100460.94;;;26.84;24.19
66164;BME280;52962;51.088;3.096;2024-03-08T11:19:30;100455.97;;;27.09;24.96
66164;BME280;52962;51.088;3.096;2024-03-08T11:22:01;100454.50;;;27.52;25.05
66164;BME280;52962;51.088;3.096;2024-03-08T11:24:37;100453.31;;;27.89;25.79
66164;BME280;52962;51.088;3.096;2024-03-08T11:27:07;100453.50;;;27.86;26.38
66164;BME280;52962;51.088;3.096;2024-03-08T11:29:37;100450.19;;;27.81;25.26
66164;BME280;52962;51.088;3.096;2024-03-08T11:32:08;100445.03;;;27.92;24.76
66164;BME280;52962;51.088;3.096;2024-03-08T11:34:38;100434.53;;;28.48;26.22
66164;BME280;52962;51.088;3.096;2024-03-08T11:37:12;100437.56;;;28.72;23.83
66164;BME280;52962;51.088;3.096;2024-03-08T11:39:46;100430.63;;;27.76;26.02
66164;BME280;52962;51.088;3.096;2024-03-08T11:42:15;100430.09;;;27.70;26.88
66164;BME280;52962;51.088;3.096;2024-03-08T11:44:45;100426.44;;;28.32;26.52
66164;BME280;52962;51.088;3.096;2024-03-08T11:47:15;100418.22;;;28.63;24.38
66164;BME280;52962;51.088;3.096;2024-03-08T11:49:44;100421.09;;;28.90;23.48
66164;BME280;52962;51.088;3.096;2024-03-08T11:52:17;100417.03;;;28.53;24.58
66164;BME280;52962;51.088;3.096;2024-03-08T11:54:52;100408.91;;;28.53;25.00
66164;BME280;52962;51.088;3.096;2024-03-08T11:57:22;100409.63;;;29.28;24.36
66164;BME280;52962;51.088;3.096;2024-03-08T11:59:51;100409.78;;;29.68;24.40
66164;BME280;52962;51.088;3.096;2024-03-08T12:02:23;100393.03;;;28.61;25.09
66164;BME280;52962;51.088;3.096;2024-03-08T12:04:56;100393.63;;;29.38;24.89
66164;BME280;52962;51.088;3.096;2024-03-08T12:07:26;100383.56;;;29.54;24.20
66164;BME280;52962;51.088;3.096;2024-03-08T12:10:15;100378.69;;;28.89;23.21
66164;BME280;52962;51.088;3.096;2024-03-08T12:12:44;100375.72;;;28.50;26.17
66164;BME280;52962;51.088;3.096;2024-03-08T12:15:15;100368.81;;;28.88;25.70
66164;BME280;52962;51.088;3.096;2024-03-08T12:17:45;100376.69;;;29.34;25.56
66164;BME280;52962;51.088;3.096;2024-03-08T12:20:16;100389.09;;;26.47;29.27
66164;BME280;52962;51.088;3.096;2024-03-08T12:22:46;100389.16;;;26.45;26.98
66164;BME280;52962;51.088;3.096;2024-03-08T12:25:14;100371.53;;;28.44;24.25
66164;BME280;52962;51.088;3.096;2024-03-08T12:27:43;100364.84;;;29.08;23.85
66164;BME280;52962;51.088;3.096;2024-03-08T12:30:20;100361.69;;;30.11;22.80
66164;BME280;52962;51.088;3.096;2024-03-08T12:32:52;100370.72;;;30.37;22.59
66164;BME280;52962;51.088;3.096;2024-03-08T12:35:21;100357.06;;;29.72;22.91
66164;BME280;52962;51.088;3.096;2024-03-08T12:37:52;100358.22;;;30.47;22.58
66164;BME280;52962;51.088;3.096;2024-03-08T12:40:26;100351.75;;;31.00;22.55
66164;BME280;52962;51.088;3.096;2024-03-08T12:42:55;100340.22;;;30.84;20.96
66164;BME280;52962;51.088;3.096;2024-03-08T12:45:24;100331.97;;;30.73;21.73
66164;BME280;52962;51.088;3.096;2024-03-08T12:47:53;100332.19;;;30.70;23.02
66164;BME280;52962;51.088;3.096;2024-03-08T12:50:22;100332.88;;;30.21;21.00
66164;BME280;52962;51.088;3.096;2024-03-08T12:52:53;100330.72;;;29.86;21.98
66164;BME280;52962;51.088;3.096;2024-03-08T12:55:21;100333.25;;;29.89;23.03
66164;BME280;52962;51.088;3.096;2024-03-08T12:57:50;100317.84;;;29.63;21.63
66164;BME280;52962;51.088;3.096;2024-03-08T13:00:20;100314.72;;;29.28;22.24
66164;BME280;52962;51.088;3.096;2024-03-08T13:02:50;100318.75;;;29.76;22.70